createdAt,value
2023-04-25T00:00:55.937Z,11.80
2023-04-25T00:03:23.639Z,12.93
2023-04-25T00:05:52.844Z,19.40
2023-04-25T00:08:20.048Z,10.87
2023-04-25T00:10:47.163Z,14.30
2023-04-25T00:13:15.872Z,6.83
2023-04-25T00:15:47.401Z,12.33
2023-04-25T00:18:18.918Z,14.53
2023-04-25T00:20:48.084Z,7.17
2023-04-25T00:23:19.697Z,11.77
2023-04-25T00:25:51.168Z,10.90
2023-04-25T00:28:20.324Z,4.70
2023-04-25T00:30:50.424Z,10.40
2023-04-25T00:33:20.620Z,10.23
2023-04-25T00:35:48.612Z,16.43
2023-04-25T00:38:16.052Z,18.43
2023-04-25T00:40:45.133Z,14.20
2023-04-25T00:43:12.181Z,11.07
2023-04-25T00:45:40.384Z,11.20
2023-04-25T00:48:10.541Z,16.30
2023-04-25T00:50:39.589Z,10.07
2023-04-25T00:53:07.538Z,8.60
2023-04-25T00:55:53.811Z,15.23
2023-04-25T00:58:23.252Z,12.07
2023-04-25T01:00:53.137Z,13.43
2023-04-25T01:03:23.871Z,18.53
2023-04-25T01:05:52.016Z,14.50
2023-04-25T01:08:24.581Z,11.60
2023-04-25T01:10:54.662Z,14.27
2023-04-25T01:13:22.607Z,14.13
2023-04-25T01:15:52.692Z,16.50
2023-04-25T01:18:22.794Z,9.83
2023-04-25T01:20:53.136Z,12.43
2023-04-25T01:23:23.569Z,15.80
2023-04-25T01:25:52.316Z,10.87
2023-04-25T01:28:21.490Z,14.50
2023-04-25T01:30:52.720Z,15.00
2023-04-25T01:33:22.124Z,13.87
2023-04-25T01:35:52.707Z,18.50
2023-04-25T01:38:20.974Z,21.03
2023-04-25T01:40:52.421Z,15.83
2023-04-25T01:43:21.462Z,14.90
2023-04-25T01:45:52.699Z,12.70
2023-04-25T01:48:19.904Z,21.40
2023-04-25T01:50:52.943Z,17.27
2023-04-25T01:53:23.782Z,11.13
2023-04-25T01:55:52.913Z,15.90
2023-04-25T01:58:21.936Z,12.83
2023-04-25T02:00:48.916Z,19.17
2023-04-25T02:03:16.929Z,9.40
2023-04-25T02:05:44.091Z,9.70
2023-04-25T02:08:11.203Z,18.80
2023-04-25T02:10:39.191Z,10.50
2023-04-25T02:13:08.337Z,19.00
2023-04-25T02:15:36.497Z,12.70
2023-04-25T02:18:07.556Z,14.73
2023-04-25T02:20:35.496Z,11.60
2023-04-25T02:23:05.014Z,11.53
2023-04-25T02:25:33.009Z,12.27
2023-04-25T02:28:01.207Z,19.30
2023-04-25T02:30:29.244Z,14.77
2023-04-25T02:32:59.421Z,18.77
2023-04-25T02:35:29.587Z,11.93
2023-04-25T02:37:56.519Z,12.93
2023-04-25T02:40:26.734Z,19.47
2023-04-25T02:42:53.752Z,10.37
2023-04-25T02:45:23.835Z,21.93
2023-04-25T02:47:53.907Z,14.57
2023-04-25T02:50:22.171Z,14.50
2023-04-25T02:52:52.258Z,12.00
2023-04-25T02:55:21.661Z,6.57
2023-04-25T02:57:50.768Z,11.80
2023-04-25T03:00:19.755Z,9.50
2023-04-25T03:02:47.035Z,8.67
2023-04-25T03:05:15.266Z,13.63
2023-04-25T03:07:42.230Z,9.13
2023-04-25T03:10:09.338Z,11.40
2023-04-25T03:12:39.810Z,12.63
2023-04-25T03:15:07.266Z,7.50
2023-04-25T03:17:34.438Z,12.37
2023-04-25T03:20:02.809Z,8.53
2023-04-25T03:22:29.918Z,14.40
2023-04-25T03:24:56.871Z,10.53
2023-04-25T03:27:24.993Z,9.17
2023-04-25T03:29:53.971Z,7.67
2023-04-25T03:32:21.399Z,7.13
2023-04-25T03:34:50.577Z,10.20
2023-04-25T03:37:20.619Z,16.77
2023-04-25T03:39:49.641Z,9.30
2023-04-25T03:42:18.003Z,13.63
2023-04-25T03:44:46.959Z,8.90
2023-04-25T03:47:20.006Z,9.30
2023-04-25T03:49:50.510Z,11.87
2023-04-25T03:52:17.535Z,14.90
2023-04-25T03:54:47.585Z,6.87
2023-04-25T03:57:14.680Z,14.37
2023-04-25T03:59:45.461Z,9.73
2023-04-25T04:02:15.732Z,10.77
2023-04-25T04:04:45.554Z,14.37
2023-04-25T04:07:16.862Z,12.70
2023-04-25T04:09:43.814Z,13.23
2023-04-25T04:12:11.267Z,8.43
2023-04-25T04:14:41.385Z,12.33
2023-04-25T04:17:11.614Z,11.00
2023-04-25T04:19:41.789Z,16.23
2023-04-25T04:22:24.922Z,10.73
2023-04-25T04:24:53.103Z,8.33
2023-04-25T04:27:23.748Z,8.40
2023-04-25T04:29:53.360Z,18.17
2023-04-25T04:32:20.422Z,14.57
2023-04-25T04:34:48.509Z,11.30
2023-04-25T04:37:18.746Z,15.87
2023-04-25T04:39:48.156Z,15.03
2023-04-25T04:42:17.238Z,11.10
2023-04-25T04:44:45.853Z,11.53
2023-04-25T04:47:15.998Z,10.67
2023-04-25T04:49:43.822Z,11.23
2023-04-25T04:52:10.821Z,11.93
2023-04-25T04:54:43.791Z,13.87
2023-04-25T04:57:10.915Z,13.33
2023-04-25T04:59:41.011Z,11.93
2023-04-25T05:02:07.995Z,8.83
2023-04-25T05:04:38.100Z,10.03
2023-04-25T05:07:05.186Z,9.50
2023-04-25T05:09:33.307Z,8.97
2023-04-25T05:12:02.211Z,14.07
2023-04-25T05:14:29.241Z,8.10
2023-04-25T05:16:56.404Z,8.83
2023-04-25T05:19:23.462Z,12.30
2023-04-25T05:21:50.583Z,5.50
2023-04-25T05:24:17.598Z,11.10
2023-04-25T05:26:45.780Z,8.07
2023-04-25T05:29:13.107Z,7.40
2023-04-25T05:31:42.192Z,5.57
2023-04-25T05:34:09.546Z,15.47
2023-04-25T05:36:38.565Z,7.23
2023-04-25T05:39:09.933Z,5.80
2023-04-25T05:41:40.900Z,5.97
2023-04-25T05:44:10.304Z,8.27
2023-04-25T05:46:40.465Z,8.97
2023-04-25T05:49:13.841Z,10.33
2023-04-25T05:51:40.918Z,9.70
2023-04-25T05:54:11.095Z,8.77
2023-04-25T05:56:41.156Z,23.20
2023-04-25T05:59:10.147Z,13.30
2023-04-25T06:01:43.352Z,8.80
2023-04-25T06:04:12.512Z,8.40
2023-04-25T06:06:41.688Z,9.63
2023-04-25T06:09:09.707Z,5.70
2023-04-25T06:11:39.832Z,9.33
2023-04-25T06:14:07.864Z,6.70
2023-04-25T06:16:35.095Z,7.87
2023-04-25T06:19:03.444Z,11.03
2023-04-25T06:21:30.402Z,12.33
2023-04-25T06:23:57.364Z,12.80
2023-04-25T06:26:26.484Z,15.30
2023-04-25T06:28:54.557Z,7.67
2023-04-25T06:31:24.731Z,7.63
2023-04-25T06:33:55.846Z,16.57
2023-04-25T06:36:28.912Z,5.67
2023-04-25T06:38:55.993Z,11.93
2023-04-25T06:41:23.046Z,10.23
2023-04-25T06:43:52.071Z,13.40
2023-04-25T06:46:21.294Z,8.23
2023-04-25T06:48:51.871Z,7.80
2023-04-25T06:51:23.579Z,7.80
2023-04-25T06:53:52.333Z,10.47
2023-04-25T06:56:20.393Z,8.10
2023-04-25T06:58:47.505Z,9.40
2023-04-25T07:01:17.599Z,10.77
2023-04-25T07:03:44.758Z,7.97
2023-04-25T07:06:12.866Z,7.00
2023-04-25T07:08:42.969Z,6.03
2023-04-25T07:11:10.178Z,7.33
2023-04-25T07:13:37.633Z,6.57
2023-04-25T07:16:06.465Z,5.83
2023-04-25T07:18:33.480Z,14.53
2023-04-25T07:21:03.613Z,5.37
2023-04-25T07:23:31.766Z,6.77
2023-04-25T07:25:59.777Z,9.53
2023-04-25T07:28:26.797Z,8.73
2023-04-25T07:30:59.939Z,8.97
2023-04-25T07:33:28.725Z,8.37
2023-04-25T07:35:56.868Z,4.20
2023-04-25T07:38:24.971Z,8.80
2023-04-25T07:40:52.120Z,7.80
2023-04-25T07:43:19.082Z,4.97
2023-04-25T07:45:48.254Z,7.57
2023-04-25T07:48:20.060Z,8.50
2023-04-25T07:50:49.235Z,7.97
2023-04-25T07:53:22.407Z,5.87
2023-04-25T07:55:49.618Z,9.67
2023-04-25T07:58:16.772Z,6.90
2023-04-25T08:00:44.735Z,6.07
2023-04-25T08:03:12.180Z,7.23
2023-04-25T08:05:39.576Z,7.23
2023-04-25T08:08:12.592Z,6.50
2023-04-25T08:10:43.394Z,4.90
2023-04-25T08:13:10.456Z,3.43
2023-04-25T08:15:37.873Z,3.73
2023-04-25T08:18:06.598Z,1.67
2023-04-25T08:20:33.934Z,7.00
2023-04-25T08:23:01.202Z,5.00
2023-04-25T08:25:29.276Z,6.47
2023-04-25T08:27:57.139Z,2.97
2023-04-25T08:30:24.208Z,7.67
2023-04-25T08:32:51.271Z,2.77
2023-04-25T08:35:21.687Z,5.87
2023-04-25T08:37:50.224Z,2.10
2023-04-25T08:40:17.443Z,5.03
2023-04-25T08:42:44.509Z,7.13
2023-04-25T08:45:12.698Z,5.20
2023-04-25T08:47:41.059Z,7.80
2023-04-25T08:50:11.303Z,6.37
2023-04-25T08:52:46.170Z,5.47
2023-04-25T08:55:15.351Z,4.20
2023-04-25T08:57:44.710Z,4.20
2023-04-25T09:00:18.171Z,3.13
2023-04-25T09:02:45.495Z,4.93
2023-04-25T09:05:15.571Z,2.67
2023-04-25T09:07:45.807Z,2.63
2023-04-25T09:10:15.966Z,5.23
2023-04-25T09:12:43.354Z,3.33
2023-04-25T09:15:12.711Z,5.50
2023-04-25T09:17:45.957Z,6.23
2023-04-25T09:20:19.176Z,4.83
2023-04-25T09:22:49.347Z,4.87
2023-04-25T09:25:18.606Z,6.47
2023-04-25T09:27:55.463Z,3.33
2023-04-25T09:30:32.044Z,4.07
2023-04-25T09:33:08.823Z,4.37
2023-04-25T09:35:43.595Z,6.10
2023-04-25T09:38:16.285Z,5.27
2023-04-25T09:40:47.566Z,2.27
2023-04-25T09:43:23.242Z,2.60
2023-04-25T09:45:58.866Z,6.23
2023-04-25T09:48:28.695Z,4.70
2023-04-25T09:51:07.845Z,3.77
2023-04-25T09:53:40.589Z,6.30
2023-04-25T09:56:09.523Z,4.47
2023-04-25T09:58:39.269Z,8.43
2023-04-25T10:01:12.610Z,3.97
2023-04-25T10:03:41.396Z,2.77
2023-04-25T10:06:15.506Z,3.13
2023-04-25T10:08:44.339Z,3.67
2023-04-25T10:11:16.987Z,4.97
2023-04-25T10:13:47.082Z,4.37
2023-04-25T10:16:14.637Z,3.63
2023-04-25T10:18:44.785Z,4.87
2023-04-25T10:21:16.167Z,3.63
2023-04-25T10:23:46.863Z,3.90
2023-04-25T10:26:15.539Z,4.77
2023-04-25T10:29:04.504Z,4.77
2023-04-25T10:31:35.495Z,3.23
2023-04-25T10:34:06.648Z,3.47
2023-04-25T10:36:38.535Z,5.17
2023-04-25T10:39:10.202Z,4.53
2023-04-25T10:41:49.363Z,6.27
2023-04-25T10:44:17.570Z,3.60
2023-04-25T10:46:47.081Z,7.00
2023-04-25T10:49:37.395Z,3.90
2023-04-25T10:52:19.909Z,5.83
2023-04-25T10:54:56.878Z,3.90
2023-04-25T10:57:45.101Z,4.90
2023-04-25T11:00:12.894Z,2.37
2023-04-25T11:02:48.085Z,3.67
2023-04-25T11:05:43.895Z,3.83
2023-04-25T11:08:23.778Z,2.87
2023-04-25T11:10:52.339Z,6.70
2023-04-25T11:13:21.900Z,5.83
2023-04-25T11:16:03.141Z,3.50
2023-04-25T11:18:41.729Z,5.83
2023-04-25T11:21:08.879Z,2.20
2023-04-25T11:23:38.339Z,5.30
2023-04-25T11:26:07.958Z,4.00
2023-04-25T11:28:37.186Z,1.87
2023-04-25T11:31:05.939Z,2.70
2023-04-25T11:33:34.921Z,2.77
2023-04-25T11:36:02.210Z,2.23
2023-04-25T11:38:31.152Z,1.83
2023-04-25T11:41:10.695Z,5.30
2023-04-25T11:43:42.909Z,2.10
2023-04-25T11:46:13.618Z,3.97
2023-04-25T11:48:43.863Z,5.57
2023-04-25T11:51:11.495Z,4.13
2023-04-25T11:53:44.050Z,3.20
2023-04-25T11:56:13.025Z,4.60
2023-04-25T11:59:00.003Z,2.77
2023-04-25T12:01:35.724Z,2.87
2023-04-25T12:04:17.963Z,3.00
2023-04-25T12:06:50.177Z,6.50
2023-04-25T12:09:41.003Z,4.40
2023-04-25T12:12:11.352Z,3.37
2023-04-25T12:14:38.274Z,4.30
2023-04-25T12:17:09.264Z,4.63
2023-04-25T12:19:44.889Z,5.07
2023-04-25T12:22:27.147Z,3.87
2023-04-25T12:24:55.473Z,6.27
2023-04-25T12:27:22.527Z,4.07
2023-04-25T12:29:59.560Z,8.87
2023-04-25T12:32:29.922Z,2.17
2023-04-25T12:34:57.577Z,4.30
2023-04-25T12:37:28.106Z,3.00
2023-04-25T12:39:55.147Z,5.73
2023-04-25T12:42:24.232Z,4.13
2023-04-25T12:44:52.260Z,3.93
2023-04-25T12:47:22.849Z,3.77
2023-04-25T12:49:50.172Z,2.97
2023-04-25T12:52:23.281Z,8.53
2023-04-25T12:54:50.477Z,3.83
2023-04-25T12:57:20.519Z,3.40
2023-04-25T12:59:47.577Z,4.43
2023-04-25T13:02:17.873Z,3.73
2023-04-25T13:04:47.021Z,2.43
2023-04-25T13:07:15.016Z,6.00
2023-04-25T13:09:45.288Z,3.73
2023-04-25T13:12:15.453Z,2.97
2023-04-25T13:14:45.490Z,3.33
2023-04-25T13:17:12.472Z,5.17
2023-04-25T13:19:42.526Z,9.60
2023-04-25T13:22:09.854Z,4.70
2023-04-25T13:24:38.900Z,3.90
2023-04-25T13:27:08.952Z,7.87
2023-04-25T13:29:39.139Z,5.50
2023-04-25T13:32:12.263Z,5.83
2023-04-25T13:34:42.484Z,6.63
2023-04-25T13:37:11.603Z,3.83
2023-04-25T13:39:38.556Z,5.63
2023-04-25T13:42:08.661Z,2.70
2023-04-25T13:44:35.782Z,3.53
2023-04-25T13:47:06.044Z,5.83
2023-04-25T13:49:33.126Z,4.13
2023-04-25T13:52:00.159Z,5.73
2023-04-25T13:54:27.466Z,6.23
2023-04-25T13:56:59.590Z,4.40
2023-04-25T13:59:26.715Z,2.80
2023-04-25T14:02:00.588Z,4.03
2023-04-25T14:04:29.795Z,4.27
2023-04-25T14:06:58.876Z,6.10
2023-04-25T14:09:29.545Z,6.97
2023-04-25T14:11:57.469Z,3.50
2023-04-25T14:14:38.001Z,7.93
2023-04-25T14:17:06.119Z,6.30
2023-04-25T14:19:33.120Z,4.07
2023-04-25T14:22:03.354Z,4.77
2023-04-25T14:24:33.406Z,4.10
2023-04-25T14:27:02.004Z,4.30
2023-04-25T14:29:29.019Z,3.67
2023-04-25T14:31:58.580Z,8.43
2023-04-25T14:34:26.937Z,4.83
2023-04-25T14:36:54.988Z,4.13
2023-04-25T14:39:24.006Z,3.40
2023-04-25T14:41:53.058Z,2.37
2023-04-25T14:44:20.028Z,8.47
2023-04-25T14:46:52.762Z,9.27
2023-04-25T14:49:20.231Z,7.43
2023-04-25T14:51:50.208Z,3.87
2023-04-25T14:54:22.022Z,5.40
2023-04-25T14:56:51.300Z,6.70
2023-04-25T14:59:19.230Z,5.73
2023-04-25T15:01:47.703Z,6.57
2023-04-25T15:04:16.455Z,4.93
2023-04-25T15:06:45.584Z,7.43
2023-04-25T15:09:13.630Z,3.23
2023-04-25T15:11:40.807Z,5.43
2023-04-25T15:14:08.813Z,4.97
2023-04-25T15:16:35.914Z,5.50
2023-04-25T15:19:06.861Z,4.57
2023-04-25T15:21:34.242Z,3.50
2023-04-25T15:24:01.518Z,10.10
2023-04-25T15:26:29.826Z,7.50
2023-04-25T15:28:57.956Z,4.17
2023-04-25T15:31:25.026Z,8.30
2023-04-25T15:33:52.498Z,5.23
2023-04-25T15:36:21.734Z,2.53
2023-04-25T15:38:48.870Z,9.13
2023-04-25T15:41:19.142Z,2.73
2023-04-25T15:43:49.448Z,6.20
2023-04-25T15:46:16.927Z,4.83
2023-04-25T15:48:44.063Z,7.23
2023-04-25T15:51:14.150Z,12.30
2023-04-25T15:53:44.365Z,7.60
2023-04-25T15:56:13.699Z,6.07
2023-04-25T15:58:40.729Z,4.77
2023-04-25T16:01:12.060Z,3.60
2023-04-25T16:03:39.771Z,4.47
2023-04-25T16:06:10.182Z,8.87
2023-04-25T16:08:38.331Z,5.73
2023-04-25T16:11:08.754Z,7.47
2023-04-25T16:13:38.841Z,4.70
2023-04-25T16:16:05.951Z,5.33
2023-04-25T16:18:36.388Z,5.07
2023-04-25T16:21:05.478Z,5.40
2023-04-25T16:23:34.080Z,6.30
2023-04-25T16:26:01.158Z,6.50
2023-04-25T16:28:30.214Z,3.17
2023-04-25T16:31:00.860Z,6.20
2023-04-25T16:33:28.097Z,5.40
2023-04-25T16:35:55.144Z,3.97
2023-04-25T16:38:25.832Z,5.03
2023-04-25T16:40:56.900Z,7.57
2023-04-25T16:43:26.989Z,6.17
2023-04-25T16:45:55.265Z,4.23
2023-04-25T16:48:24.569Z,3.60
2023-04-25T16:50:52.946Z,7.63
2023-04-25T16:53:22.410Z,2.47
2023-04-25T16:55:52.714Z,9.30
2023-04-25T16:58:23.370Z,8.63
2023-04-25T17:00:52.563Z,5.67
2023-04-25T17:03:19.854Z,4.33
2023-04-25T17:05:50.875Z,6.03
2023-04-25T17:08:20.490Z,6.03
2023-04-25T17:10:50.930Z,5.90
2023-04-25T17:13:21.372Z,12.00
2023-04-25T17:15:58.001Z,7.97
2023-04-25T17:18:28.323Z,3.67
2023-04-25T17:20:58.552Z,6.20
2023-04-25T17:23:26.552Z,5.70
2023-04-25T17:25:56.643Z,7.70
2023-04-25T17:28:26.809Z,5.33
2023-04-25T17:30:53.873Z,5.00
2023-04-25T17:33:21.477Z,8.00
2023-04-25T17:35:51.513Z,4.93
2023-04-25T17:38:21.815Z,7.50
2023-04-25T17:40:52.028Z,7.63
2023-04-25T17:43:22.282Z,7.83
2023-04-25T17:45:50.312Z,8.70
2023-04-25T17:48:18.502Z,8.50
2023-04-25T17:50:48.896Z,5.97
2023-04-25T17:53:16.189Z,9.20
2023-04-25T17:55:46.382Z,10.20
2023-04-25T17:58:15.707Z,2.47
2023-04-25T18:00:43.708Z,4.60
2023-04-25T18:03:13.947Z,6.60
2023-04-25T18:05:41.493Z,4.47
2023-04-25T18:08:10.581Z,6.73
2023-04-25T18:10:39.138Z,3.33
2023-04-25T18:13:09.260Z,2.87
2023-04-25T18:15:39.503Z,5.57
2023-04-25T18:18:15.111Z,3.03
2023-04-25T18:20:43.489Z,3.57
2023-04-25T18:23:12.169Z,6.33
2023-04-25T18:25:39.138Z,5.13
2023-04-25T18:28:06.218Z,5.00
2023-04-25T18:30:34.156Z,5.03
2023-04-25T18:33:01.171Z,4.17
2023-04-25T18:35:28.603Z,4.93
2023-04-25T18:37:55.536Z,4.60
2023-04-25T18:40:22.539Z,7.53
2023-04-25T18:42:49.443Z,12.20
2023-04-25T18:45:16.400Z,4.70
2023-04-25T18:47:43.493Z,7.47
2023-04-25T18:50:10.957Z,4.20
2023-04-25T18:52:37.943Z,7.20
2023-04-25T18:55:05.600Z,8.90
2023-04-25T18:57:33.054Z,12.27
2023-04-25T19:00:04.809Z,3.23
2023-04-25T19:02:31.910Z,5.73
2023-04-25T19:04:59.127Z,4.37
2023-04-25T19:07:28.345Z,7.73
2023-04-25T19:09:55.343Z,3.30
2023-04-25T19:12:22.395Z,4.20
2023-04-25T19:14:50.522Z,2.77
2023-04-25T19:17:17.490Z,4.63
2023-04-25T19:19:44.426Z,7.13
2023-04-25T19:22:11.695Z,3.13
2023-04-25T19:24:38.718Z,2.20
2023-04-25T19:27:05.694Z,2.87
2023-04-25T19:29:34.196Z,7.20
2023-04-25T19:32:03.279Z,1.87
2023-04-25T19:34:30.384Z,7.10
2023-04-25T19:36:57.480Z,4.27
2023-04-25T19:39:25.517Z,3.10
2023-04-25T19:41:52.487Z,4.47
2023-04-25T19:44:21.479Z,4.10
2023-04-25T19:46:49.720Z,2.93
2023-04-25T19:49:16.824Z,4.07
2023-04-25T19:51:43.945Z,5.70
2023-04-25T19:54:10.973Z,3.30
2023-04-25T19:56:38.100Z,2.53
2023-04-25T19:59:05.046Z,5.23
2023-04-25T20:01:32.073Z,2.83
2023-04-25T20:03:59.075Z,2.13
2023-04-25T20:06:27.328Z,4.37
2023-04-25T20:08:54.699Z,2.73
2023-04-25T20:11:22.009Z,3.13
2023-04-25T20:13:49.059Z,1.87
2023-04-25T20:16:20.030Z,3.97
2023-04-25T20:18:48.571Z,4.13
2023-04-25T20:21:16.974Z,4.87
2023-04-25T20:23:44.228Z,5.00
2023-04-25T20:26:12.707Z,2.70
2023-04-25T20:28:39.966Z,2.57
2023-04-25T20:31:07.178Z,3.77
2023-04-25T20:33:35.797Z,4.50
2023-04-25T20:36:02.705Z,3.67
2023-04-25T20:38:29.645Z,2.43
2023-04-25T20:40:56.917Z,4.53
2023-04-25T20:43:25.874Z,4.57
2023-04-25T20:45:53.576Z,4.10
2023-04-25T20:48:21.192Z,5.57
2023-04-25T20:50:48.130Z,2.93
2023-04-25T20:53:15.329Z,4.00
2023-04-25T20:55:42.696Z,7.47
2023-04-25T20:58:09.625Z,4.83
2023-04-25T21:00:39.079Z,2.37
2023-04-25T21:03:07.279Z,5.17
2023-04-25T21:05:34.453Z,4.40
2023-04-25T21:08:01.457Z,6.13
2023-04-25T21:10:28.416Z,3.47
2023-04-25T21:12:56.737Z,2.70
2023-04-25T21:15:24.786Z,7.03
2023-04-25T21:17:52.537Z,3.40
2023-04-25T21:20:21.857Z,3.87
2023-04-25T21:22:53.038Z,4.67
2023-04-25T21:25:25.595Z,5.90
2023-04-25T21:27:53.478Z,4.20
2023-04-25T21:30:23.509Z,4.73
2023-04-25T21:32:51.897Z,4.93
2023-04-25T21:35:20.700Z,5.17
2023-04-25T21:37:49.423Z,5.03
2023-04-25T21:40:16.439Z,5.33
2023-04-25T21:42:46.504Z,4.03
2023-04-25T21:45:13.411Z,2.60
2023-04-25T21:47:40.447Z,3.73
2023-04-25T21:50:08.123Z,4.57
2023-04-25T21:52:36.301Z,4.67
2023-04-25T21:55:03.345Z,6.63
2023-04-25T21:57:30.445Z,3.97
2023-04-25T21:59:57.624Z,3.57
2023-04-25T22:02:24.899Z,7.90
2023-04-25T22:04:52.684Z,4.23
2023-04-25T22:07:19.895Z,2.07
2023-04-25T22:09:54.392Z,4.13
2023-04-25T22:12:23.390Z,3.63
2023-04-25T22:14:50.854Z,4.80
2023-04-25T22:17:19.010Z,5.47
2023-04-25T22:19:47.176Z,5.30
2023-04-25T22:22:14.573Z,3.53
2023-04-25T22:24:42.382Z,4.33
2023-04-25T22:27:11.175Z,6.07
2023-04-25T22:29:38.233Z,4.43
2023-04-25T22:32:05.426Z,3.37
2023-04-25T22:34:32.434Z,4.50
2023-04-25T22:36:59.739Z,3.13
2023-04-25T22:39:26.797Z,3.47
2023-04-25T22:41:54.521Z,5.33
2023-04-25T22:44:22.471Z,5.33
2023-04-25T22:46:49.465Z,5.43
2023-04-25T22:49:17.376Z,3.93
2023-04-25T22:51:45.372Z,3.23
2023-04-25T22:54:12.394Z,9.03
2023-04-25T22:56:39.342Z,2.77
2023-04-25T22:59:06.452Z,3.87
2023-04-25T23:01:33.470Z,5.80
2023-04-25T23:04:00.791Z,4.53
2023-04-25T23:06:28.063Z,5.20
2023-04-25T23:08:55.493Z,3.43
2023-04-25T23:11:23.939Z,10.00
2023-04-25T23:13:50.892Z,6.47
2023-04-25T23:16:18.383Z,5.37
2023-04-25T23:18:45.843Z,4.90
2023-04-25T23:21:12.828Z,2.30
2023-04-25T23:23:39.974Z,3.17
2023-04-25T23:26:10.959Z,3.87
2023-04-25T23:28:41.483Z,3.50
2023-04-25T23:31:10.425Z,3.37
2023-04-25T23:33:38.046Z,4.47
2023-04-25T23:36:05.508Z,2.53
2023-04-25T23:38:32.805Z,5.13
2023-04-25T23:40:59.938Z,4.07
2023-04-25T23:43:26.904Z,3.63
2023-04-25T23:45:55.428Z,4.70
2023-04-25T23:48:23.158Z,4.23
2023-04-25T23:50:50.132Z,5.17
2023-04-25T23:53:17.134Z,5.50
2023-04-25T23:55:44.240Z,4.47
2023-04-25T23:58:11.218Z,7.00
